Time;durP1;ratioP1;P1;durP2;ratioP2;P2;SDS_P1;SDS_P2;PMS_P1;PMS_P2;Temp;Humidity;BMP_temperature;BMP_pressure;BME280_temperature;BME280_humidity;BME280_pressure;Samples;Min_cycle;Max_cycle;Signal;HPM_P1;HPM_P2
2022/05/16 00:00:03;;;;;;;2.70;1.90;;;23.90;80.30;;;;;;5057016;28;20208;-32
2022/05/16 00:02:32;;;;;;;2.88;2.20;;;23.90;80.50;;;;;;5050372;28;20677;-32
2022/05/16 00:05:03;;;;;;;2.47;1.90;;;23.90;80.40;;;;;;5048872;28;20666;-32
2022/05/16 00:07:30;;;;;;;3.72;2.38;;;23.90;80.60;;;;;;5050592;28;20201;-32
2022/05/16 00:09:58;;;;;;;2.60;2.22;;;23.80;80.60;;;;;;5059805;28;20207;-32
2022/05/16 00:12:25;;;;;;;6.05;2.20;;;23.80;80.70;;;;;;5042678;28;20200;-32
2022/05/16 00:14:55;;;;;;;5.28;2.10;;;23.70;80.60;;;;;;5039392;28;20662;-32
2022/05/16 00:17:28;;;;;;;3.60;2.08;;;23.70;80.70;;;;;;5057529;28;20683;-32
2022/05/16 00:19:55;;;;;;;3.63;2.00;;;23.70;80.70;;;;;;5051471;28;20208;-32
2022/05/16 00:22:26;;;;;;;2.83;1.80;;;23.60;80.70;;;;;;5039353;28;20203;-32
2022/05/16 00:24:54;;;;;;;4.15;2.40;;;23.50;80.70;;;;;;5041428;28;20303;-32
2022/05/16 00:27:21;;;;;;;2.83;2.03;;;23.50;80.80;;;;;;5046687;28;20223;-32
2022/05/16 00:29:50;;;;;;;4.35;2.28;;;23.50;80.80;;;;;;5033257;28;20248;-32
2022/05/16 00:32:18;;;;;;;3.28;2.35;;;23.40;80.80;;;;;;5055528;28;20211;-32
2022/05/16 00:34:46;;;;;;;4.07;2.08;;;23.30;80.70;;;;;;5066274;28;20572;-31
2022/05/16 00:37:14;;;;;;;2.85;2.00;;;23.30;80.90;;;;;;5052601;28;20386;-33
2022/05/16 00:39:41;;;;;;;5.03;2.38;;;23.20;80.80;;;;;;5050345;28;20200;-32
2022/05/16 00:42:13;;;;;;;4.35;2.28;;;23.20;80.90;;;;;;5045833;28;20216;-32
2022/05/16 00:44:40;;;;;;;4.85;2.22;;;23.20;81.10;;;;;;5040992;28;20243;-32
2022/05/16 00:47:10;;;;;;;2.15;1.95;;;23.10;81.00;;;;;;5060331;28;20253;-32
2022/05/16 00:49:43;;;;;;;4.97;2.40;;;23.10;81.00;;;;;;5030487;28;20737;-32
2022/05/16 00:52:17;;;;;;;4.22;2.30;;;23.10;81.30;;;;;;5061285;28;20629;-32
2022/05/16 00:54:55;;;;;;;2.95;1.90;;;23.00;81.20;;;;;;5045635;28;20204;-32
2022/05/16 00:57:36;;;;;;;2.90;2.10;;;23.00;81.50;;;;;;5039552;28;20311;-33
2022/05/16 01:00:14;;;;;;;2.72;2.47;;;23.00;81.40;;;;;;5031869;28;20208;-32
2022/05/16 01:05:36;;;;;;;3.47;2.10;;;22.90;81.30;;;;;;5059512;28;20192;-33
2022/05/16 01:08:11;;;;;;;2.28;1.95;;;22.90;81.40;;;;;;5043595;28;20204;-32
2022/05/16 01:10:39;;;;;;;3.33;2.08;;;22.80;81.60;;;;;;5043413;28;20304;-32
2022/05/16 01:13:07;;;;;;;4.35;2.05;;;22.80;81.50;;;;;;5045246;28;20200;-32
2022/05/16 01:15:48;;;;;;;3.85;2.35;;;22.70;81.40;;;;;;5047787;28;20196;-32
2022/05/16 01:18:21;;;;;;;4.00;2.22;;;22.70;81.50;;;;;;5046700;28;20206;-32
2022/05/16 01:21:10;;;;;;;3.25;2.00;;;22.70;81.50;;;;;;5057634;28;20212;-32
2022/05/16 01:23:54;;;;;;;4.47;2.13;;;22.70;81.90;;;;;;5047379;28;20295;-32
2022/05/16 01:26:27;;;;;;;4.15;2.40;;;22.60;81.60;;;;;;5037730;28;20657;-32
2022/05/16 01:29:00;;;;;;;2.63;2.15;;;22.60;81.70;;;;;;5046686;28;20595;-32
2022/05/16 01:31:27;;;;;;;3.67;2.10;;;22.60;81.90;;;;;;5047019;28;20199;-37
2022/05/16 01:33:55;;;;;;;5.00;2.45;;;22.60;81.90;;;;;;5045274;28;20235;-37
2022/05/16 01:36:22;;;;;;;4.22;2.13;;;22.60;81.90;;;;;;5037792;28;20213;-37
2022/05/16 01:38:51;;;;;;;3.53;2.40;;;22.50;81.90;;;;;;5046544;28;20215;-36
2022/05/16 01:41:22;;;;;;;2.75;2.20;;;22.50;81.90;;;;;;5064621;28;20207;-36
2022/05/16 01:43:55;;;;;;;2.42;2.05;;;22.50;82.00;;;;;;5028661;28;20744;-37
2022/05/16 01:46:28;;;;;;;3.03;2.22;;;22.50;82.20;;;;;;5028789;28;20208;-36
2022/05/16 01:48:55;;;;;;;2.92;2.00;;;22.50;82.20;;;;;;5039388;28;20760;-36
2022/05/16 01:51:22;;;;;;;3.55;2.03;;;22.50;82.20;;;;;;5052907;28;20199;-37
2022/05/16 01:53:50;;;;;;;2.63;2.13;;;22.50;82.30;;;;;;5049563;28;20702;-37
2022/05/16 01:56:18;;;;;;;4.28;1.90;;;22.50;82.20;;;;;;5046343;28;20232;-36
2022/05/16 01:58:48;;;;;;;3.33;2.28;;;22.50;82.40;;;;;;5042899;28;20785;-37
2022/05/16 02:01:16;;;;;;;3.65;2.42;;;22.50;82.40;;;;;;5045641;28;20212;-36
2022/05/16 02:03:48;;;;;;;4.50;2.17;;;22.50;82.40;;;;;;5034616;28;20221;-36
2022/05/16 02:06:18;;;;;;;3.72;2.17;;;22.50;82.70;;;;;;5065490;28;20681;-32
2022/05/16 02:08:48;;;;;;;4.93;2.10;;;22.50;82.60;;;;;;5052611;28;20286;-32
2022/05/16 02:11:18;;;;;;;4.93;2.30;;;22.50;82.70;;;;;;5047966;28;20196;-32
2022/05/16 02:13:46;;;;;;;4.47;2.10;;;22.50;82.90;;;;;;5044226;28;20222;-32
2022/05/16 02:16:16;;;;;;;4.07;2.05;;;22.50;82.80;;;;;;5066504;28;20210;-32
2022/05/16 02:18:44;;;;;;;4.25;2.10;;;22.50;82.90;;;;;;5057903;28;20231;-32
2022/05/16 02:26:46;;;;;;;2.80;2.15;;;22.50;83.10;;;;;;5046437;28;20615;-32
2022/05/16 02:29:16;;;;;;;2.95;2.30;;;22.40;83.10;;;;;;5052911;28;20783;-32
2022/05/16 02:31:44;;;;;;;3.42;2.10;;;22.40;83.20;;;;;;5059129;28;20202;-32
2022/05/16 02:34:13;;;;;;;3.95;2.33;;;22.40;83.30;;;;;;5046331;28;20204;-32
2022/05/16 02:36:41;;;;;;;5.38;2.25;;;22.40;83.30;;;;;;5032620;28;20296;-32
2022/05/16 02:39:09;;;;;;;2.33;1.80;;;22.40;83.40;;;;;;5048550;28;20755;-32
2022/05/16 02:41:39;;;;;;;4.80;2.53;;;22.40;83.40;;;;;;5065974;28;20222;-32
2022/05/16 02:44:06;;;;;;;3.95;2.28;;;22.30;83.50;;;;;;5059141;28;20677;-32
2022/05/16 02:46:33;;;;;;;3.17;2.10;;;22.30;83.50;;;;;;5056589;28;20693;-32
2022/05/16 02:49:01;;;;;;;3.35;2.25;;;22.30;83.60;;;;;;5029004;28;20217;-32
2022/05/16 02:51:31;;;;;;;3.50;2.28;;;22.30;83.70;;;;;;5027563;28;20716;-32
2022/05/16 02:54:01;;;;;;;3.70;2.50;;;22.20;83.70;;;;;;5066183;28;20202;-32
2022/05/16 02:56:28;;;;;;;3.78;2.33;;;22.20;83.90;;;;;;5064157;28;20228;-32
2022/05/16 02:58:55;;;;;;;2.95;2.22;;;22.20;83.80;;;;;;5033856;28;20204;-32
2022/05/16 03:01:22;;;;;;;3.35;2.20;;;22.10;83.80;;;;;;5037617;28;20290;-32
2022/05/16 03:03:50;;;;;;;2.60;2.10;;;22.10;83.80;;;;;;5053108;28;20200;-32
2022/05/16 03:06:20;;;;;;;3.47;2.20;;;22.10;84.00;;;;;;5045117;28;20207;-32
2022/05/16 03:08:47;;;;;;;4.13;2.55;;;22.10;84.00;;;;;;5039329;28;20264;-32
2022/05/16 03:11:15;;;;;;;4.03;2.20;;;22.00;84.00;;;;;;5026621;28;20773;-32
2022/05/16 03:13:42;;;;;;;2.28;2.08;;;22.00;84.10;;;;;;5031330;28;20211;-32
2022/05/16 03:16:14;;;;;;;3.53;2.50;;;22.00;84.10;;;;;;5035445;28;20246;-32
2022/05/16 03:18:44;;;;;;;3.75;2.17;;;21.90;84.10;;;;;;5046349;28;20205;-32
2022/05/16 03:21:11;;;;;;;3.45;2.30;;;21.90;84.10;;;;;;5037055;28;20205;-32
2022/05/16 03:23:40;;;;;;;2.80;2.40;;;21.90;84.30;;;;;;5028203;28;20231;-32
2022/05/16 03:26:10;;;;;;;4.45;2.45;;;21.90;84.40;;;;;;5051367;28;20216;-32
2022/05/16 03:28:40;;;;;;;4.60;2.72;;;21.90;84.40;;;;;;5052138;28;20300;-32
2022/05/16 03:31:09;;;;;;;3.80;2.30;;;21.80;84.50;;;;;;5048295;28;20575;-32
2022/05/16 03:33:36;;;;;;;3.97;2.50;;;21.80;84.50;;;;;;5061426;28;20678;-33
2022/05/16 03:36:06;;;;;;;3.38;2.30;;;21.80;84.60;;;;;;5060676;28;20211;-32
2022/05/16 03:41:19;;;;;;;4.82;2.78;;;21.80;84.80;;;;;;5054333;28;20218;-32
2022/05/16 03:43:46;;;;;;;4.07;2.55;;;21.70;84.70;;;;;;5047501;28;20294;-32
2022/05/16 03:46:16;;;;;;;3.95;2.55;;;21.70;84.80;;;;;;5057456;28;20217;-32
2022/05/16 03:48:44;;;;;;;5.45;2.42;;;21.70;84.90;;;;;;5064347;28;20205;-32
2022/05/16 03:51:13;;;;;;;4.70;2.53;;;21.80;85.10;;;;;;5047418;28;20275;-32
2022/05/16 03:53:46;;;;;;;4.07;2.60;;;21.80;85.20;;;;;;5040221;28;20207;-32
2022/05/16 03:56:16;;;;;;;4.22;2.25;;;21.80;85.10;;;;;;5055421;28;20239;-32
2022/05/16 03:58:43;;;;;;;4.18;2.50;;;21.70;85.10;;;;;;5056644;28;21002;-32
2022/05/16 04:01:14;;;;;;;3.58;2.80;;;21.70;85.20;;;;;;5064413;28;20255;-31
2022/05/16 04:03:42;;;;;;;4.60;2.38;;;21.70;85.30;;;;;;5046596;28;20196;-32
2022/05/16 04:06:13;;;;;;;3.60;2.60;;;21.70;85.30;;;;;;5032038;28;20572;-32
2022/05/16 04:08:44;;;;;;;3.22;2.53;;;21.70;85.50;;;;;;5053007;28;20296;-39
2022/05/16 04:11:15;;;;;;;4.78;2.45;;;21.80;85.60;;;;;;5061071;28;20201;-36
2022/05/16 04:13:43;;;;;;;2.92;2.60;;;21.80;85.60;;;;;;5038095;28;20627;-36
2022/05/16 04:16:11;;;;;;;4.35;2.78;;;21.80;85.60;;;;;;5051050;28;20734;-36
2022/05/16 04:18:43;;;;;;;4.57;2.65;;;21.80;85.70;;;;;;5048534;28;20204;-36
2022/05/16 04:21:14;;;;;;;4.93;2.90;;;21.80;85.80;;;;;;5029062;28;20262;-36
2022/05/16 04:23:41;;;;;;;3.45;2.28;;;21.80;85.90;;;;;;5040600;28;20215;-36
2022/05/16 04:26:08;;;;;;;3.88;2.50;;;21.80;85.90;;;;;;5044352;28;20215;-36
2022/05/16 04:28:35;;;;;;;3.47;2.47;;;21.90;86.10;;;;;;5046859;28;20303;-36
2022/05/16 04:31:05;;;;;;;5.28;2.55;;;21.90;86.10;;;;;;5035284;28;20196;-37
2022/05/16 04:33:34;;;;;;;5.85;2.60;;;21.90;86.30;;;;;;5044840;28;20238;-37
2022/05/16 04:36:02;;;;;;;7.07;2.97;;;21.90;86.20;;;;;;5061752;28;20268;-36
2022/05/16 04:38:32;;;;;;;4.47;2.45;;;21.90;86.20;;;;;;5046758;28;20201;-37
2022/05/16 04:43:47;;;;;;;7.05;2.65;;;22.00;86.50;;;;;;5048662;28;20218;-34
2022/05/16 04:46:17;;;;;;;6.65;2.30;;;22.00;86.50;;;;;;5061365;28;20232;-32
2022/05/16 04:48:44;;;;;;;4.13;2.38;;;22.00;86.60;;;;;;5053993;28;20768;-32
2022/05/16 04:51:15;;;;;;;3.65;2.55;;;22.00;86.60;;;;;;5055294;28;20215;-32
2022/05/16 04:53:44;;;;;;;4.90;2.40;;;22.10;86.70;;;;;;5032055;28;20201;-32
2022/05/16 04:56:14;;;;;;;6.80;3.15;;;22.10;86.80;;;;;;5028231;28;20243;-33
2022/05/16 04:58:41;;;;;;;5.22;2.60;;;22.10;86.80;;;;;;5040673;28;20204;-32
2022/05/16 05:01:09;;;;;;;6.47;3.47;;;22.10;86.90;;;;;;5055448;28;20272;-32
2022/05/16 05:03:36;;;;;;;11.85;3.25;;;22.10;87.00;;;;;;5040779;28;20203;-33
2022/05/16 05:06:04;;;;;;;10.68;3.63;;;22.10;87.00;;;;;;5041561;28;20278;-32
2022/05/16 05:08:31;;;;;;;10.90;3.40;;;22.10;87.10;;;;;;5037362;28;20702;-33
2022/05/16 05:16:33;;;;;;;12.60;4.05;;;22.20;87.80;;;;;;5042342;28;20322;-32
2022/05/16 05:19:00;;;;;;;4.32;3.00;;;22.20;87.60;;;;;;5042298;28;20215;-32
2022/05/16 05:21:27;;;;;;;4.38;2.63;;;22.30;87.70;;;;;;5036633;28;20196;-32
2022/05/16 05:24:00;;;;;;;6.05;2.80;;;22.30;87.70;;;;;;5035617;28;20209;-32
2022/05/16 05:26:27;;;;;;;6.07;3.10;;;22.30;87.80;;;;;;5049574;28;20196;-32
2022/05/16 05:28:59;;;;;;;6.60;3.10;;;22.40;88.00;;;;;;5048872;28;20282;-32
2022/05/16 05:31:29;;;;;;;6.03;3.10;;;22.40;88.00;;;;;;5057769;28;20265;-32
2022/05/16 05:33:59;;;;;;;5.68;3.22;;;22.50;88.20;;;;;;5045476;28;20208;-32
2022/05/16 05:36:26;;;;;;;4.40;3.00;;;22.50;88.20;;;;;;5029034;28;20593;-35
2022/05/16 05:38:54;;;;;;;7.05;3.42;;;22.60;88.40;;;;;;5049013;28;20225;-34
2022/05/16 05:41:22;;;;;;;5.82;3.70;;;22.60;88.50;;;;;;5048672;28;20289;-34
2022/05/16 05:43:50;;;;;;;5.03;3.25;;;22.60;88.50;;;;;;5041304;28;21471;-34
2022/05/16 05:46:17;;;;;;;4.90;3.33;;;22.70;88.60;;;;;;5041885;28;20228;-34
2022/05/16 05:48:45;;;;;;;6.60;3.80;;;22.70;88.70;;;;;;5054165;28;20587;-34
2022/05/16 05:51:14;;;;;;;7.18;3.60;;;22.80;88.80;;;;;;5047307;28;20253;-34
2022/05/16 05:53:47;;;;;;;6.60;3.45;;;22.80;89.60;;;;;;5035226;28;20207;-34
2022/05/16 05:56:14;;;;;;;8.52;3.80;;;22.80;88.90;;;;;;5039389;28;20322;-34
2022/05/16 05:58:43;;;;;;;10.35;3.88;;;22.80;89.00;;;;;;5047405;28;20205;-33
2022/05/16 06:01:15;;;;;;;7.95;3.50;;;22.90;89.10;;;;;;5063524;28;20216;-34
2022/05/16 06:03:43;;;;;;;7.82;3.85;;;22.90;89.20;;;;;;5064051;28;20216;-35
2022/05/16 06:06:10;;;;;;;11.40;3.65;;;23.00;89.30;;;;;;5067561;28;20222;-35
2022/05/16 06:08:38;;;;;;;14.57;4.38;;;23.00;89.40;;;;;;5041593;28;20227;-35
2022/05/16 06:11:07;;;;;;;8.48;3.70;;;23.00;89.50;;;;;;5052898;28;20298;-35
2022/05/16 06:13:35;;;;;;;10.15;3.60;;;23.10;89.70;;;;;;5038962;28;20291;-35
2022/05/16 06:16:02;;;;;;;20.95;4.53;;;23.10;89.60;;;;;;5060443;28;20274;-33
2022/05/16 06:18:32;;;;;;;10.93;3.97;;;23.10;89.60;;;;;;5043041;28;20288;-34
2022/05/16 06:21:03;;;;;;;11.77;3.78;;;23.20;89.80;;;;;;5068365;28;20777;-34
2022/05/16 06:23:33;;;;;;;8.98;3.17;;;23.10;89.70;;;;;;5062858;28;20231;-33
2022/05/16 06:26:05;;;;;;;8.45;3.70;;;23.20;89.80;;;;;;5028139;28;20228;-33
2022/05/16 06:28:37;;;;;;;4.50;3.10;;;23.20;90.00;;;;;;5030092;28;20208;-35
2022/05/16 06:31:08;;;;;;;7.43;3.03;;;23.20;89.90;;;;;;5051875;28;20226;-34
2022/05/16 06:33:37;;;;;;;7.43;3.10;;;23.20;89.90;;;;;;5065323;28;20207;-34
2022/05/16 06:36:05;;;;;;;6.75;2.53;;;23.20;90.00;;;;;;5066870;28;20613;-34
2022/05/16 06:38:35;;;;;;;6.82;2.83;;;23.20;90.00;;;;;;5068247;28;20249;-34
2022/05/16 06:41:02;;;;;;;5.90;3.22;;;23.30;90.00;;;;;;5050350;28;20223;-34
2022/05/16 06:43:33;;;;;;;3.42;2.35;;;23.30;90.00;;;;;;5028796;28;20854;-34
2022/05/16 06:46:02;;;;;;;4.03;2.45;;;23.40;90.00;;;;;;5042168;28;20273;-34
2022/05/16 06:48:29;;;;;;;5.97;2.65;;;23.40;90.00;;;;;;5048763;28;20204;-33
2022/05/16 06:50:57;;;;;;;3.92;2.20;;;23.40;90.00;;;;;;5051055;28;20258;-33
2022/05/16 06:53:29;;;;;;;4.13;2.10;;;23.50;90.10;;;;;;5059234;28;20219;-35
2022/05/16 06:56:04;;;;;;;6.57;2.22;;;23.50;90.10;;;;;;5044667;28;20650;-35
2022/05/16 06:58:31;;;;;;;5.72;2.63;;;23.50;90.20;;;;;;5040576;28;20358;-35
2022/05/16 07:01:01;;;;;;;4.47;2.28;;;23.60;90.20;;;;;;5045955;28;20247;-34
2022/05/16 07:03:30;;;;;;;6.95;2.22;;;23.70;90.30;;;;;;5046948;28;20212;-33
2022/05/16 07:05:57;;;;;;;7.38;2.20;;;23.70;90.30;;;;;;5040838;28;20312;-36
2022/05/16 07:08:25;;;;;;;6.22;2.38;;;23.70;90.40;;;;;;5028050;28;20683;-33
2022/05/16 07:10:53;;;;;;;6.57;2.63;;;23.80;90.40;;;;;;5027335;28;20232;-33
2022/05/16 07:13:24;;;;;;;6.75;2.40;;;23.80;90.40;;;;;;5048435;28;20232;-34
2022/05/16 07:15:52;;;;;;;5.60;1.90;;;23.90;90.40;;;;;;5037791;28;20229;-37
2022/05/16 07:18:19;;;;;;;7.43;2.17;;;24.00;90.50;;;;;;5046961;28;20569;-36
2022/05/16 07:20:52;;;;;;;9.27;2.38;;;24.00;90.60;;;;;;5047538;28;20216;-37
2022/05/16 07:23:23;;;;;;;4.32;1.90;;;24.10;90.60;;;;;;5055618;28;20207;-35
2022/05/16 07:28:37;;;;;;;5.03;2.35;;;24.20;90.70;;;;;;5058001;28;20234;-35
2022/05/16 07:31:05;;;;;;;4.97;2.38;;;24.20;90.70;;;;;;5066943;28;20306;-35
2022/05/16 07:33:35;;;;;;;7.28;2.35;;;24.30;90.80;;;;;;5042266;28;20288;-35
2022/05/16 07:36:03;;;;;;;4.38;2.15;;;24.40;90.90;;;;;;5038942;28;20389;-35
2022/05/16 07:38:33;;;;;;;4.68;2.40;;;24.40;90.90;;;;;;5047854;28;20205;-35
2022/05/16 07:41:01;;;;;;;3.80;1.98;;;24.40;90.90;;;;;;5065174;28;20640;-35
2022/05/16 07:43:29;;;;;;;2.55;1.77;;;24.50;90.90;;;;;;5055829;28;20648;-35
2022/05/16 07:45:58;;;;;;;7.45;2.40;;;24.50;91.00;;;;;;5046972;28;20679;-36
2022/05/16 07:48:26;;;;;;;4.25;2.40;;;24.60;91.20;;;;;;5026679;28;20307;-35
2022/05/16 07:51:00;;;;;;;6.05;2.45;;;24.70;91.20;;;;;;5046148;28;20315;-33
2022/05/16 07:53:29;;;;;;;6.60;2.33;;;24.70;91.40;;;;;;5052683;28;20211;-35
2022/05/16 07:55:57;;;;;;;2.95;1.95;;;24.80;91.50;;;;;;5065910;28;20254;-35
2022/05/16 07:58:25;;;;;;;3.75;1.92;;;24.90;91.50;;;;;;5067381;28;20191;-33
2022/05/16 08:00:59;;;;;;;8.15;3.05;;;25.00;91.50;;;;;;5066871;28;20253;-34
2022/05/16 08:03:30;;;;;;;10.73;2.88;;;25.00;91.50;;;;;;5061573;28;20644;-33
2022/05/16 08:05:58;;;;;;;14.75;4.03;;;25.10;91.60;;;;;;5052830;28;20212;-34
2022/05/16 08:11:14;;;;;;;7.82;2.75;;;25.30;91.70;;;;;;5031751;28;20236;-34
2022/05/16 08:13:42;;;;;;;4.93;2.70;;;25.40;91.90;;;;;;5068949;28;20223;-34
2022/05/16 08:16:11;;;;;;;5.47;2.47;;;25.50;92.00;;;;;;5065559;28;20264;-34
2022/05/16 08:18:42;;;;;;;6.35;2.22;;;25.60;92.00;;;;;;5070684;28;20195;-34
2022/05/16 08:21:10;;;;;;;6.85;2.70;;;25.70;92.10;;;;;;5062660;28;20208;-36
2022/05/16 08:23:39;;;;;;;7.25;2.50;;;25.80;92.20;;;;;;5045768;28;20208;-35
2022/05/16 08:26:07;;;;;;;9.25;2.63;;;25.90;92.20;;;;;;5029289;28;20219;-36
2022/05/16 08:28:36;;;;;;;12.32;3.45;;;26.00;92.10;;;;;;5030647;28;20575;-37
2022/05/16 08:31:06;;;;;;;8.95;2.47;;;26.00;92.30;;;;;;5059018;28;20223;-34
2022/05/16 08:33:38;;;;;;;6.20;2.70;;;26.10;92.30;;;;;;5015926;28;20579;-34
2022/05/16 08:41:52;;;;;;;12.77;3.30;;;26.30;92.60;;;;;;5030766;28;20204;-34
2022/05/16 08:44:29;;;;;;;13.48;2.97;;;26.30;92.60;;;;;;5039650;28;20223;-34
2022/05/16 08:47:08;;;;;;;7.28;2.97;;;26.40;92.60;;;;;;5045250;28;20208;-34
2022/05/16 08:49:49;;;;;;;10.90;3.20;;;26.40;92.50;;;;;;5035478;28;20299;-34
2022/05/16 08:52:20;;;;;;;10.38;3.28;;;26.50;92.70;;;;;;5061081;28;20199;-33
2022/05/16 08:54:51;;;;;;;8.35;3.45;;;26.50;92.60;;;;;;5061173;28;20670;-34
2022/05/16 08:57:38;;;;;;;11.52;3.65;;;26.50;92.80;;;;;;5051848;28;20727;-36
2022/05/16 09:00:41;;;;;;;4.60;2.63;;;26.60;92.70;;;;;;5041723;28;20223;-34
2022/05/16 09:03:16;;;;;;;9.40;3.47;;;26.60;92.70;;;;;;5049695;28;20698;-33
2022/05/16 09:05:51;;;;;;;13.75;3.53;;;26.60;92.70;;;;;;5062473;28;20206;-36
2022/05/16 09:08:51;;;;;;;10.88;3.97;;;26.60;92.70;;;;;;5058111;28;20718;-37
2022/05/16 09:11:46;;;;;;;6.20;3.00;;;26.70;92.90;;;;;;5044069;28;20280;-37
2022/05/16 09:14:29;;;;;;;7.20;3.05;;;26.70;92.80;;;;;;5060710;28;20638;-36
2022/05/16 09:17:02;;;;;;;7.97;3.38;;;26.70;92.80;;;;;;5031914;28;20275;-37
2022/05/16 09:19:42;;;;;;;6.57;3.40;;;26.70;92.70;;;;;;5056710;28;20635;-37
2022/05/16 09:22:21;;;;;;;9.23;3.90;;;26.70;92.90;;;;;;5052740;28;20231;-37
2022/05/16 09:25:11;;;;;;;7.50;4.90;;;26.70;93.00;;;;;;5030229;28;20204;-36
2022/05/16 09:30:28;;;;;;;7.28;3.28;;;26.60;92.80;;;;;;5057954;28;20590;-36
2022/05/16 09:33:06;;;;;;;7.18;3.78;;;26.70;93.00;;;;;;5047020;28;20227;-38
2022/05/16 09:35:51;;;;;;;7.78;3.83;;;26.70;93.00;;;;;;5036223;28;20647;-39
2022/05/16 09:38:22;;;;;;;5.80;3.70;;;26.60;93.10;;;;;;5032067;28;20188;-38
2022/05/16 09:40:58;;;;;;;7.00;3.70;;;26.60;93.00;;;;;;5063445;28;20290;-37
2022/05/16 09:43:35;;;;;;;8.57;4.15;;;26.70;92.90;;;;;;5054458;28;20761;-36
2022/05/16 09:46:39;;;;;;;12.75;4.57;;;26.60;92.90;;;;;;5048795;28;20577;-37
2022/05/16 09:49:27;;;;;;;12.82;4.40;;;26.70;92.90;;;;;;5034285;28;20240;-37
2022/05/16 09:51:57;;;;;;;5.00;3.25;;;26.80;93.00;;;;;;5033211;28;20699;-38
2022/05/16 09:54:31;;;;;;;11.00;4.50;;;26.80;93.10;;;;;;5046637;28;20254;-34
2022/05/16 09:57:06;;;;;;;8.02;4.38;;;26.80;93.00;;;;;;5048172;28;20858;-35
2022/05/16 09:59:54;;;;;;;8.18;4.95;;;26.80;93.00;;;;;;5048686;28;20231;-35
2022/05/16 10:02:35;;;;;;;6.15;4.07;;;26.80;93.20;;;;;;5050193;28;20650;-35
2022/05/16 10:05:27;;;;;;;9.63;4.25;;;26.80;93.00;;;;;;5052159;28;20262;-35
2022/05/16 10:08:05;;;;;;;6.63;4.10;;;26.80;93.00;;;;;;5045865;28;20683;-36
2022/05/16 10:10:41;;;;;;;11.20;4.65;;;26.80;93.00;;;;;;5049683;28;20225;-37
2022/05/16 10:13:09;;;;;;;6.95;4.15;;;26.80;93.10;;;;;;5050074;28;21021;-38
2022/05/16 10:15:39;;;;;;;7.85;4.63;;;26.70;93.00;;;;;;5051031;28;20296;-38
2022/05/16 10:18:12;;;;;;;13.45;5.07;;;26.60;93.10;;;;;;5067477;28;20203;-36
2022/05/16 10:20:54;;;;;;;8.80;5.30;;;26.60;93.20;;;;;;5052966;28;20476;-37
2022/05/16 10:23:27;;;;;;;11.07;5.40;;;26.50;93.30;;;;;;5047389;28;20215;-37
2022/05/16 10:26:02;;;;;;;7.10;4.65;;;26.40;93.30;;;;;;5046624;28;20660;-37
2022/05/16 10:28:37;;;;;;;7.35;5.38;;;26.40;93.40;;;;;;5042556;28;20251;-38
2022/05/16 10:34:04;;;;;;;9.68;5.28;;;26.30;93.40;;;;;;5056839;28;20575;-37
2022/05/16 10:36:36;;;;;;;8.10;5.18;;;26.30;93.30;;;;;;5067320;28;20252;-37
2022/05/16 10:39:10;;;;;;;13.57;5.53;;;26.20;93.40;;;;;;5055520;28;20604;-37
2022/05/16 10:41:43;;;;;;;15.80;5.72;;;26.10;93.30;;;;;;5027538;28;20313;-36
2022/05/16 10:44:33;;;;;;;6.95;4.78;;;26.10;93.20;;;;;;5036367;28;20257;-37
2022/05/16 10:47:23;;;;;;;9.70;5.32;;;26.00;93.70;;;;;;5048429;28;20289;-38
2022/05/16 10:50:00;;;;;;;9.82;6.00;;;25.90;93.50;;;;;;5047610;28;20331;-38
2022/05/16 10:52:34;;;;;;;9.00;5.20;;;25.80;93.50;;;;;;5047906;28;20705;-38
2022/05/16 10:55:05;;;;;;;12.05;6.05;;;25.70;94.10;;;;;;5047552;28;20233;-34
2022/05/16 10:57:56;;;;;;;14.55;6.60;;;25.70;93.80;;;;;;5030395;28;20236;-34
2022/05/16 11:01:01;;;;;;;10.55;5.82;;;25.70;94.20;;;;;;5041390;28;20682;-34
2022/05/16 11:03:59;;;;;;;12.63;6.80;;;25.60;94.00;;;;;;5047589;28;20208;-35
2022/05/16 11:06:49;;;;;;;9.80;5.40;;;25.60;94.20;;;;;;5051985;28;20195;-35
2022/05/16 11:09:38;;;;;;;11.98;5.88;;;25.60;94.10;;;;;;5063096;28;20653;-35
2022/05/16 11:12:12;;;;;;;9.60;5.80;;;25.50;94.10;;;;;;5063812;28;20702;-35
2022/05/16 11:15:14;;;;;;;9.07;5.85;;;25.50;94.00;;;;;;5044458;28;20204;-35
2022/05/16 11:18:05;;;;;;;8.57;5.78;;;25.60;94.40;;;;;;5039509;28;20246;-34
2022/05/16 11:20:44;;;;;;;7.10;5.90;;;25.60;94.20;;;;;;5031591;28;20295;-34
2022/05/16 11:23:20;;;;;;;7.93;5.50;;;25.60;94.30;;;;;;5031516;28;20200;-34
2022/05/16 11:26:02;;;;;;;12.18;5.65;;;25.70;94.30;;;;;;5028658;28;20319;-34
2022/05/16 11:29:16;;;;;;;12.20;6.55;;;25.70;94.40;;;;;;5067533;28;20191;-35
2022/05/16 11:31:32;;;;;;;11.48;6.32;;;25.80;94.40;;;;;;5045882;28;20219;-37
2022/05/16 11:33:59;;;;;;;14.77;5.63;;;25.80;94.30;;;;;;5049730;28;20600;-38
2022/05/16 11:36:45;;;;;;;10.68;5.63;;;25.90;94.30;;;;;;5028599;28;20211;-37
2022/05/16 11:39:23;;;;;;;8.10;5.43;;;25.90;94.30;;;;;;5056383;28;20576;-38
2022/05/16 11:42:12;;;;;;;10.18;5.22;;;25.90;94.30;;;;;;5033603;28;20238;-38
2022/05/16 11:45:03;;;;;;;10.02;5.43;;;25.90;94.40;;;;;;5066985;28;20211;-37
2022/05/16 11:48:02;;;;;;;8.88;4.70;;;26.00;94.40;;;;;;5048996;28;20765;-37
2022/05/16 11:51:03;;;;;;;5.05;4.40;;;26.00;94.30;;;;;;5063177;28;20199;-38
2022/05/16 11:53:50;;;;;;;7.35;4.97;;;26.00;94.40;;;;;;5046421;28;20223;-38
2022/05/16 12:02:17;;;;;;;9.07;3.60;;;26.30;93.80;;;;;;5041885;28;20209;-38
2022/05/16 12:04:53;;;;;;;9.00;3.50;;;26.30;93.70;;;;;;5052564;28;20705;-38
2022/05/16 12:07:38;;;;;;;7.75;3.45;;;26.40;93.70;;;;;;5047300;28;20794;-37
2022/05/16 12:10:08;;;;;;;7.22;3.38;;;26.40;93.50;;;;;;5055623;28;20293;-37
2022/05/16 12:12:43;;;;;;;9.55;3.97;;;26.40;93.50;;;;;;5042651;28;20805;-37
2022/05/16 12:15:18;;;;;;;10.30;3.58;;;26.40;93.50;;;;;;5051645;28;20204;-35
2022/05/16 12:17:56;;;;;;;13.73;4.22;;;26.50;93.30;;;;;;5047564;28;20638;-35
2022/05/16 12:20:58;;;;;;;10.93;3.25;;;26.50;92.90;;;;;;5049167;28;20296;-38
2022/05/16 12:23:56;;;;;;;6.68;3.40;;;26.50;93.00;;;;;;5049485;28;20199;-37
2022/05/16 12:26:26;;;;;;;9.20;3.38;;;26.40;93.00;;;;;;5036818;28;20216;-38
2022/05/16 12:29:09;;;;;;;7.90;3.50;;;26.40;92.90;;;;;;5030590;28;20298;-38
2022/05/16 12:31:48;;;;;;;7.15;3.53;;;26.40;92.80;;;;;;5050319;28;20215;-38
2022/05/16 12:34:33;;;;;;;9.02;3.88;;;26.40;93.00;;;;;;5069597;28;20199;-38
2022/05/16 12:37:05;;;;;;;14.68;4.70;;;26.40;92.90;;;;;;5070452;28;20212;-38
2022/05/16 12:39:44;;;;;;;9.32;4.30;;;26.40;92.90;;;;;;5033240;28;20205;-35
2022/05/16 12:42:51;;;;;;;8.25;4.60;;;26.40;92.90;;;;;;5039966;28;20231;-35
2022/05/16 12:45:38;;;;;;;8.55;5.15;;;26.30;92.80;;;;;;5050052;28;20199;-34
2022/05/16 12:48:17;;;;;;;13.18;4.68;;;26.30;92.80;;;;;;5036640;28;20473;-35
2022/05/16 12:51:09;;;;;;;16.13;5.25;;;26.20;92.80;;;;;;5034230;28;20514;-34
2022/05/16 12:53:52;;;;;;;11.27;5.10;;;26.20;92.80;;;;;;5068806;28;20191;-35
2022/05/16 12:56:38;;;;;;;13.85;4.70;;;26.20;93.10;;;;;;5038213;28;20452;-35
2022/05/16 12:59:32;;;;;;;12.65;4.63;;;26.20;92.90;;;;;;5044524;28;20208;-35
2022/05/16 13:02:15;;;;;;;8.68;4.13;;;26.20;92.90;;;;;;5070092;28;20215;-35
2022/05/16 13:05:12;;;;;;;11.82;3.63;;;26.20;93.00;;;;;;5048748;28;20201;-35
2022/05/16 13:07:39;;;;;;;9.73;3.35;;;26.20;92.90;;;;;;5045374;28;20208;-35
2022/05/16 13:10:37;;;;;;;11.68;4.07;;;26.10;92.80;;;;;;5050272;28;20208;-35
2022/05/16 13:13:37;;;;;;;9.90;3.80;;;26.10;92.90;;;;;;5045738;28;20638;-35
2022/05/16 13:16:21;;;;;;;18.45;4.20;;;26.20;92.80;;;;;;5045860;28;20782;-37
2022/05/16 13:18:55;;;;;;;6.68;3.10;;;26.20;92.60;;;;;;5042791;28;20195;-35
2022/05/16 13:21:36;;;;;;;11.43;2.92;;;26.20;92.80;;;;;;5064202;28;20223;-35
2022/05/16 13:24:12;;;;;;;9.05;3.00;;;26.30;92.90;;;;;;5066091;28;20287;-37
2022/05/16 13:29:35;;;;;;;10.15;3.28;;;26.40;92.90;;;;;;5056059;28;20799;-37
2022/05/16 13:32:10;;;;;;;8.57;2.95;;;26.60;92.60;;;;;;5049610;28;20286;-37
2022/05/16 13:34:51;;;;;;;8.15;2.83;;;26.70;92.50;;;;;;5062891;28;20205;-37
2022/05/16 13:37:31;;;;;;;8.73;2.40;;;26.70;92.30;;;;;;5058181;28;20597;-36
2022/05/16 13:40:03;;;;;;;5.95;2.67;;;26.80;92.40;;;;;;5063791;28;20742;-38
2022/05/16 13:42:35;;;;;;;9.40;2.45;;;26.80;91.90;;;;;;5067497;28;20219;-37
2022/05/16 13:45:05;;;;;;;7.07;2.50;;;26.80;91.90;;;;;;5058547;28;20215;-37
2022/05/16 13:47:33;;;;;;;6.95;2.20;;;26.80;92.10;;;;;;5044596;28;20682;-37
2022/05/16 13:50:02;;;;;;;3.28;1.75;;;26.80;92.10;;;;;;5042347;28;20201;-38
2022/05/16 13:52:37;;;;;;;12.40;2.70;;;26.80;92.10;;;;;;5066535;28;20228;-37
2022/05/16 13:55:10;;;;;;;12.27;2.90;;;26.90;92.20;;;;;;5062442;28;20541;-37
2022/05/16 13:57:39;;;;;;;8.57;2.50;;;26.90;92.00;;;;;;5070789;28;20207;-37
2022/05/16 14:00:37;;;;;;;6.93;2.15;;;26.90;92.00;;;;;;5068992;28;20199;-35
2022/05/16 14:03:33;;;;;;;9.88;3.35;;;26.90;91.70;;;;;;5055703;28;20295;-34